Home   Weather   India   Panipat   Past weeks
Flag for India

Past Weather in Panipat, Haryana, India — Yesterday and Last 2 Weeks

Currently: 93 °F. Haze. (Weather station: New Delhi Palam Airport, India). See more current weather

Past Weather in Panipat — Graph

°F

Panipat Temperature Yesterday

Maximum temperature yesterday: 104 °F (at 1:30 pm)
Minimum temperature yesterday: 88 °F (at 4:30 am)
Average temperature yesterday: 95 °F

High & Low Weather Summary for the Past Weeks

 TemperatureHumidityPressure
High113 °F (May 17, 2:30 pm)70% (May 10, 6:30 am)29.92 "Hg (May 10, 6:30 am)
Low79 °F (May 11, 7:00 am)9% (May 14, 4:00 pm)29.47 "Hg (May 19, 4:30 pm)
Average96 °F31%29.69 "Hg
* Reported May 9 9:30 pm — May 24 10:00 pm, Panipat. Weather by CustomWeather, © 2024

Note: Actual official high and low records may vary slightly from our data, if they occured in-between our weather recording intervals... More about our weather records

Panipat Weather History for the Previous 24 Hours

Scroll right to see more
 ConditionsComfort  
Time TempWeatherWind HumidityBarometerVisibility
10:00 pm
Fri, May 24
95 °FHaze.7 mph44%29.56 "Hg2 mi
9:30 pm95 °FHaze.6 mph44%29.56 "Hg2 mi
9:00 pm95 °FHaze.7 mph44%29.56 "Hg2 mi
8:30 pm97 °FHaze.7 mph39%29.56 "Hg2 mi
8:00 pm97 °FHaze.7 mph39%29.56 "Hg2 mi
7:30 pm99 °FHaze.6 mph35%29.53 "Hg3 mi
7:00 pm100 °FHaze.6 mph33%29.53 "Hg3 mi
6:30 pm102 °FHaze.6 mph29%29.53 "Hg3 mi
6:00 pm102 °FHaze.6 mph29%29.53 "Hg3 mi
5:30 pm102 °FHaze.5 mph29%29.53 "Hg3 mi
4:30 pm104 °FHaze.7 mph28%29.53 "Hg3 mi
4:00 pm104 °FHaze.6 mph28%29.56 "Hg3 mi
3:30 pm104 °FHaze.8 mph29%29.56 "Hg3 mi
3:00 pm104 °FHaze.9 mph29%29.59 "Hg3 mi
2:30 pm104 °FHaze.8 mph29%29.59 "Hg3 mi
2:00 pm104 °FHaze.9 mph29%29.59 "Hg3 mi
1:30 pm102 °FHaze.10 mph31%29.62 "Hg3 mi
12:30 pm100 °FHaze.14 mph33%29.65 "Hg3 mi
12:00 pm100 °FHaze.14 mph33%29.65 "Hg3 mi
11:30 am99 °FHaze.8 mph33%29.68 "Hg2 mi
11:00 am99 °FHaze.10 mph37%29.68 "Hg2 mi
10:30 am97 °FHaze.10 mph39%29.68 "Hg2 mi
10:00 am97 °FHaze.12 mph39%29.68 "Hg2 mi
9:30 am95 °FHaze.13 mph41%29.68 "Hg2 mi
8:30 am93 °FHaze.12 mph47%29.68 "Hg2 mi
8:00 am91 °FHaze.12 mph49%29.68 "Hg2 mi
7:30 am91 °FHaze.9 mph49%29.65 "Hg2 mi
6:30 am88 °FHaze.8 mph55%29.65 "Hg2 mi
6:00 am88 °FHaze.7 mph55%29.62 "Hg2 mi
5:30 am88 °FHaze.7 mph52%29.62 "Hg2 mi
4:30 am90 °FHaze.7 mph49%29.59 "Hg2 mi
4:00 am90 °FHaze.7 mph52%29.59 "Hg2 mi
3:30 am90 °FHaze.8 mph52%29.59 "Hg2 mi
3:00 am90 °FHaze.8 mph52%29.59 "Hg2 mi
2:30 am91 °FHaze.9 mph49%29.59 "Hg2 mi
2:00 am91 °FHaze.7 mph49%29.59 "Hg2 mi
1:30 am91 °FHaze.8 mph49%29.59 "Hg2 mi
1:00 am91 °FHaze.7 mph49%29.59 "Hg2 mi
12:30 am91 °FHaze.7 mph49%29.59 "Hg2 mi
12:00 am93 °FHaze.8 mph47%29.59 "Hg2 mi
11:30 pm
Thu, May 23
93 °FHaze.7 mph47%29.59 "Hg2 mi
11:00 pm93 °FHaze.6 mph47%29.59 "Hg2 mi
Weather by CustomWeather, © 2024

See weather overview